Time;durP1;ratioP1;P1;durP2;ratioP2;P2;SDS_P1;SDS_P2;PMS_P1;PMS_P2;Temp;Humidity;BMP_temperature;BMP_pressure;BME280_temperature;BME280_humidity;BME280_pressure;Samples;Min_cycle;Max_cycle;Signal;HPM_P1;HPM_P2
2020/12/02 06:43:14;;;;;;;68.95;29.52;;;;;;;-4.72;61.45;97462.38;1727382;79;21312;-87
2020/12/02 06:45:48;;;;;;;64.82;25.55;;;;;;;-4.82;61.72;97460.45;1677479;84;22038;-79
2020/12/02 06:48:34;;;;;;;55.05;23.55;;;;;;;-4.88;61.95;97463.99;1686850;84;21382;-81
2020/12/02 06:51:18;;;;;;;64.72;25.10;;;;;;;-4.82;62.34;97450.61;1841714;77;27831;-85
2020/12/02 06:53:53;;;;;;;92.75;43.28;;;;;;;-4.71;62.29;97453.34;1769217;78;21608;-86
2020/12/02 06:56:26;;;;;;;110.17;45.35;;;;;;;-4.51;62.05;97461.03;1794414;78;21220;-86
2020/12/02 06:59:06;;;;;;;66.10;29.55;;;;;;;-4.32;61.55;97455.87;1773682;78;21225;-88
2020/12/02 07:01:37;;;;;;;60.30;27.80;;;;;;;-4.22;61.18;97451.33;1726968;82;21182;-84
2020/12/02 07:04:07;;;;;;;56.33;25.57;;;;;;;-4.32;61.02;97456.72;1727889;82;21062;-83
2020/12/02 07:06:38;;;;;;;68.80;32.00;;;;;;;-4.37;61.26;97453.85;1753151;79;21084;-85
2020/12/02 07:09:16;;;;;;;76.60;37.00;;;;;;;-4.27;61.43;97455.30;1789686;78;21372;-89
2020/12/02 07:12:10;;;;;;;89.07;43.08;;;;;;;-4.07;61.22;97455.66;1790044;78;21153;-85
2020/12/02 07:14:42;;;;;;;69.10;32.88;;;;;;;-3.82;60.62;97462.30;1783976;78;21252;-87
2020/12/02 07:17:13;;;;;;;68.87;35.23;;;;;;;-3.66;60.29;97460.18;1744829;79;21153;-88
2020/12/02 07:19:47;;;;;;;44.03;24.47;;;;;;;-3.54;60.00;97457.27;1795122;79;21141;-87
2020/12/02 07:22:45;;;;;;;;;;;;;;;;;;;;;
2020/12/02 07:25:19;;;;;;;56.48;26.05;;;;;;;-3.17;59.20;97447.67;1782218;79;21106;-88
2020/12/02 07:27:56;;;;;;;56.13;30.02;;;;;;;-2.94;58.49;97447.84;1762755;80;21152;-85
2020/12/02 07:30:36;;;;;;;44.98;22.55;;;;;;;-2.74;58.09;97456.25;1740992;78;21136;-86
2020/12/02 07:33:25;;;;;;;51.05;24.02;;;;;;;-2.58;57.44;97443.74;1798844;79;21208;-85
2020/12/02 07:36:14;;;;;;;43.83;23.38;;;;;;;-2.50;57.22;97446.47;1801555;79;22328;-85
2020/12/02 07:39:17;;;;;;;45.88;23.42;;;;;;;-2.45;57.01;97440.72;1841982;75;28310;-88
2020/12/02 07:42:29;;;;;;;40.67;20.43;;;;;;;-2.51;56.91;97441.36;1800731;78;21294;-84
2020/12/02 07:45:20;;;;;;;44.08;18.40;;;;;;;-2.44;56.96;97436.41;1798577;78;21375;-83
2020/12/02 07:48:13;;;;;;;54.35;23.35;;;;;;;-2.19;56.75;97431.32;1809245;78;21122;-86
2020/12/02 07:50:47;;;;;;;71.82;25.72;;;;;;;-1.97;56.17;97432.27;1800067;78;21206;-88
2020/12/02 07:53:39;;;;;;;71.20;25.52;;;;;;;-1.91;55.97;97429.92;1817676;78;21626;-83
2020/12/02 07:56:41;;;;;;;50.48;22.60;;;;;;;-1.81;55.78;97429.17;1815022;78;21133;-87
2020/12/02 07:59:29;;;;;;;38.92;20.23;;;;;;;-1.70;55.56;97425.33;1749793;81;22286;-86
2020/12/02 08:02:09;;;;;;;37.58;17.35;;;;;;;-1.56;55.48;97425.28;1748591;80;21243;-88
2020/12/02 08:04:54;;;;;;;36.53;18.90;;;;;;;-1.36;54.89;97419.81;1704833;81;21212;-86
2020/12/02 08:07:47;;;;;;;31.77;18.10;;;;;;;-1.19;54.55;97415.29;1755931;81;21184;-88
2020/12/02 08:10:25;;;;;;;38.13;19.23;;;;;;;-1.05;54.28;97410.92;1710221;81;21145;-87
2020/12/02 08:12:54;;;;;;;42.75;19.25;;;;;;;-0.98;53.99;97412.36;1745419;81;21366;-85
2020/12/02 08:15:23;;;;;;;47.27;22.98;;;;;;;-1.00;54.05;97414.63;1772500;80;21264;-87
2020/12/02 08:18:14;;;;;;;39.50;22.40;;;;;;;-1.03;54.34;97414.28;1752905;81;21152;-89
2020/12/02 08:20:44;;;;;;;54.83;28.02;;;;;;;-1.02;54.27;97410.78;1691640;81;21649;-83
2020/12/02 08:23:30;;;;;;;50.38;28.25;;;;;;;-0.96;54.34;97414.43;1773147;80;21146;-88
2020/12/02 08:26:23;;;;;;;57.50;27.27;;;;;;;-0.81;54.20;97408.69;1738572;80;21508;-85
2020/12/02 08:28:53;;;;;;;44.73;25.77;;;;;;;-0.75;54.12;97411.48;1738915;80;21193;-87
2020/12/02 08:31:28;;;;;;;52.38;26.37;;;;;;;-0.64;53.98;97404.61;1729120;80;21132;-89
2020/12/02 08:34:19;;;;;;;49.38;25.72;;;;;;;-0.61;54.20;97403.17;1743917;80;21234;-87
2020/12/02 08:37:12;;;;;;;49.73;25.92;;;;;;;-0.58;54.17;97406.95;1765286;79;21061;-85
2020/12/02 08:39:44;;;;;;;;;;;;;;;-0.66;54.71;97408.52;1755240;79;21384;-85
2020/12/02 08:42:30;;;;;;;52.40;25.95;;;;;;;-0.61;55.35;97410.48;1760038;79;20405;-86
2020/12/02 08:45:24;;;;;;;65.22;29.63;;;;;;;-0.47;55.58;97400.91;1754966;80;21582;-86
2020/12/02 08:47:55;;;;;;;69.05;30.15;;;;;;;-0.37;55.79;97402.64;1746267;81;21160;-84
2020/12/02 08:50:28;;;;;;;59.50;29.60;;;;;;;-0.21;56.07;97395.95;1768501;79;21127;-85
2020/12/02 08:53:00;;;;;;;68.92;31.73;;;;;;;-0.06;55.95;97395.75;1764707;77;21365;-85
2020/12/02 08:55:33;;;;;;;66.20;33.77;;;;;;;0.05;55.84;97394.01;1748423;82;21138;-84
2020/12/02 08:58:09;;;;;;;67.58;34.73;;;;;;;0.13;55.62;97388.91;1723266;83;21078;-84
2020/12/02 09:01:06;;;;;;;65.15;36.05;;;;;;;0.18;55.65;97381.79;1678941;82;21070;-87
2020/12/02 09:03:37;;;;;;;59.35;30.70;;;;;;;0.29;55.69;97380.01;1741411;81;21165;-86
2020/12/02 09:06:08;;;;;;;54.70;27.98;;;;;;;0.41;55.65;97379.47;1771197;80;21216;-85
2020/12/02 09:08:38;;;;;;;51.48;26.15;;;;;;;0.52;55.83;97371.23;1755120;81;21123;-86
2020/12/02 09:11:06;;;;;;;47.70;28.23;;;;;;;0.55;55.98;97367.67;1756556;80;21143;-85
2020/12/02 09:13:35;;;;;;;39.38;20.12;;;;;;;0.59;56.60;97362.72;1744749;81;21593;-84
2020/12/02 09:16:05;;;;;;;25.35;14.78;;;;;;;0.60;57.21;97359.25;1757736;81;21134;-84
2020/12/02 09:18:41;;;;;;;24.18;13.38;;;;;;;0.56;57.53;97361.13;1749885;81;22291;-86
2020/12/02 09:21:16;;;;;;;23.98;12.75;;;;;;;0.47;58.20;97358.47;1702460;81;21211;-84
2020/12/02 09:23:46;;;;;;;22.98;12.75;;;;;;;0.39;58.40;97352.80;1753342;81;21219;-85
2020/12/02 09:26:17;;;;;;;25.32;13.88;;;;;;;0.38;58.71;97354.17;1736241;81;21751;-83
2020/12/02 09:28:47;;;;;;;24.37;14.50;;;;;;;0.42;58.76;97339.72;1740153;81;21224;-85
2020/12/02 09:31:18;;;;;;;24.00;14.23;;;;;;;0.53;58.77;97343.97;1751288;80;21360;-84
2020/12/02 09:33:48;;;;;;;32.83;15.30;;;;;;;0.69;58.72;97339.38;1745355;80;21829;-83
2020/12/02 09:36:17;;;;;;;41.10;16.75;;;;;;;0.79;58.44;97332.41;1776259;80;21151;-85
2020/12/02 09:38:57;;;;;;;32.50;15.60;;;;;;;0.88;58.42;97322.51;1846240;77;28353;-82
2020/12/02 09:41:52;;;;;;;32.40;16.25;;;;;;;0.77;58.21;97317.39;1810482;78;21404;-86
2020/12/02 09:44:49;;;;;;;28.35;15.80;;;;;;;0.66;58.48;97312.31;1792983;78;21712;-80
2020/12/02 09:47:19;;;;;;;33.08;15.95;;;;;;;0.57;58.71;97303.66;1786675;78;21523;-83
2020/12/02 09:49:48;;;;;;;29.25;16.15;;;;;;;0.44;59.21;97313.73;1763511;78;21267;-84
2020/12/02 09:52:29;;;;;;;30.97;15.10;;;;;;;0.42;59.30;97305.20;1783467;78;21249;-82
2020/12/02 09:55:00;;;;;;;29.35;14.93;;;;;;;0.43;59.53;97303.83;1784404;78;21229;-80
2020/12/02 09:57:30;;;;;;;27.95;14.23;;;;;;;0.42;59.84;97306.05;1786289;78;22370;-82
2020/12/02 09:59:59;;;;;;;24.00;13.10;;;;;;;0.38;59.83;97304.95;1785777;78;21180;-84
2020/12/02 10:02:43;;;;;;;30.02;14.80;;;;;;;0.31;60.13;97303.55;1784396;78;22084;-82
2020/12/02 10:05:46;;;;;;;32.33;15.53;;;;;;;0.22;60.56;97297.02;1783650;78;21261;-82
2020/12/02 10:08:47;;;;;;;33.35;18.35;;;;;;;0.18;60.55;97297.63;1784444;78;21134;-85
2020/12/02 10:11:37;;;;;;;30.17;16.15;;;;;;;0.19;60.89;97300.59;1782959;78;22919;-84
2020/12/02 10:14:33;;;;;;;30.55;17.35;;;;;;;0.22;60.92;97291.83;1784870;78;21191;-83
2020/12/02 10:17:21;;;;;;;39.95;23.35;;;;;;;0.08;61.00;97292.91;1754640;79;21910;-85
2020/12/02 10:20:28;;;;;;;32.73;17.52;;;;;;;-0.03;61.56;97288.20;1782939;78;21164;-81
2020/12/02 10:23:34;;;;;;;29.98;16.10;;;;;;;-0.05;61.73;97286.14;1765599;78;21192;-79
2020/12/02 10:26:20;;;;;;;28.85;13.58;;;;;;;-0.07;62.11;97276.28;1783149;78;22323;-82
2020/12/02 10:29:01;;;;;;;23.62;14.70;;;;;;;-0.06;62.29;97280.13;1789040;78;21719;-84
2020/12/02 10:31:42;;;;;;;25.27;15.55;;;;;;;-0.03;62.00;97279.97;1785307;78;21207;-82
2020/12/02 10:34:19;;;;;;;27.50;15.32;;;;;;;0.00;61.99;97276.42;1787231;78;21200;-86
2020/12/02 10:36:57;;;;;;;21.77;13.58;;;;;;;-0.01;61.93;97274.27;1788731;78;21191;-84
2020/12/02 10:39:32;;;;;;;26.82;14.58;;;;;;;0.06;61.66;97273.56;1751421;80;21374;-84
2020/12/02 10:42:41;;;;;;;29.50;16.45;;;;;;;0.11;61.59;97269.45;1790893;78;21128;-84
2020/12/02 10:45:15;;;;;;;30.75;15.98;;;;;;;0.12;61.75;97265.52;1790619;78;21169;-86
2020/12/02 10:48:32;;;;;;;36.73;18.30;;;;;;;0.07;62.10;97268.77;1756949;80;21177;-85
2020/12/02 10:51:01;;;;;;;27.77;16.52;;;;;;;0.09;62.23;97263.52;1787175;80;21098;-84
2020/12/02 10:53:31;;;;;;;27.27;16.20;;;;;;;0.14;62.05;97254.63;1786735;80;22406;-87
2020/12/02 10:55:59;;;;;;;26.37;14.63;;;;;;;0.24;61.92;97248.59;1791359;78;21152;-81
2020/12/02 10:58:30;;;;;;;32.15;16.00;;;;;;;0.37;61.69;97254.05;1795490;78;21228;-84
2020/12/02 11:01:01;;;;;;;30.48;15.83;;;;;;;0.45;61.46;97242.41;1765318;78;21688;-83
2020/12/02 11:03:38;;;;;;;32.05;19.52;;;;;;;0.50;61.37;97240.45;1792404;78;21110;-85
2020/12/02 11:06:23;;;;;;;40.63;25.52;;;;;;;0.53;61.20;97230.38;1800989;78;21208;-86
2020/12/02 11:09:21;;;;;;;85.17;33.08;;;;;;;0.58;61.18;97229.72;1795483;78;21246;-84
2020/12/02 11:12:35;;;;;;;92.05;34.67;;;;;;;0.71;60.61;97229.97;1783774;78;21148;-84
2020/12/02 11:15:45;;;;;;;59.55;28.40;;;;;;;0.74;60.46;97226.80;1798449;78;21077;-87
2020/12/02 11:18:26;;;;;;;81.72;33.60;;;;;;;0.74;60.73;97219.48;1787608;78;21218;-86
2020/12/02 11:21:34;;;;;;;46.25;23.67;;;;;;;0.87;60.72;97218.42;1755734;78;21514;-85
2020/12/02 11:24:25;;;;;;;145.40;49.65;;;;;;;1.02;60.22;97217.69;1737602;81;21172;-84
2020/12/02 11:26:53;;;;;;;152.43;55.03;;;;;;;1.06;59.87;97214.02;1771853;79;21165;-84
2020/12/02 11:29:23;;;;;;;169.00;55.78;;;;;;;1.00;59.83;97200.89;1777669;78;21942;-81
2020/12/02 11:32:01;;;;;;;250.65;80.80;;;;;;;0.99;59.96;97212.19;1790787;78;21128;-85
2020/12/02 11:34:55;;;;;;;42.78;18.90;;;;;;;0.97;59.87;97204.95;1790482;78;21274;-82
2020/12/02 11:37:34;;;;;;;35.10;18.15;;;;;;;0.94;59.68;97198.59;1797392;78;21161;-86
2020/12/02 11:40:15;;;;;;;126.62;41.75;;;;;;;0.92;59.88;97208.67;1799732;78;21158;-83
2020/12/02 11:43:12;;;;;;;67.70;26.23;;;;;;;0.97;59.73;97204.95;1803158;78;21577;-83
2020/12/02 11:45:43;;;;;;;47.75;20.97;;;;;;;1.01;59.88;97198.70;1806414;78;21192;-85
2020/12/02 11:48:37;;;;;;;198.20;61.20;;;;;;;1.02;59.64;97196.95;1752155;78;21428;-84
2020/12/02 11:51:22;;;;;;;116.05;40.60;;;;;;;1.08;59.89;97195.81;1806898;78;21066;-86
2020/12/02 11:53:56;;;;;;;63.05;25.12;;;;;;;1.09;59.30;97185.81;1796971;78;21258;-84
2020/12/02 11:56:41;;;;;;;258.23;82.45;;;;;;;1.05;59.34;97185.11;1801385;78;21240;-83
2020/12/02 11:59:21;;;;;;;299.42;96.60;;;;;;;1.03;59.57;97189.09;1792168;78;21141;-84
2020/12/02 12:01:56;;;;;;;128.12;44.08;;;;;;;1.00;59.49;97184.03;1794797;78;21207;-84
2020/12/02 12:04:52;;;;;;;218.80;73.07;;;;;;;0.98;59.27;97183.74;1801386;78;21207;-85
2020/12/02 12:08:13;;;;;;;37.38;19.98;;;;;;;0.94;59.46;97181.74;1801594;78;21105;-84
2020/12/02 12:11:02;;;;;;;37.70;18.77;;;;;;;0.92;59.56;97186.17;1801486;78;21136;-85
2020/12/02 12:13:54;;;;;;;56.15;22.85;;;;;;;0.87;59.80;97184.72;1801904;78;21089;-85
2020/12/02 12:16:53;;;;;;;110.42;42.55;;;;;;;0.88;60.06;97187.69;1796571;78;21181;-87
2020/12/02 12:19:44;;;;;;;39.98;21.33;;;;;;;0.81;60.17;97185.86;1793236;78;21281;-86
2020/12/02 12:22:52;;;;;;;69.87;29.52;;;;;;;0.72;60.35;97185.02;1799009;78;21519;-86
2020/12/02 12:25:29;;;;;;;109.07;44.88;;;;;;;0.69;60.61;97189.88;1790569;80;21258;-86
2020/12/02 12:28:17;;;;;;;381.08;139.92;;;;;;;0.69;60.63;97191.17;1791563;80;21526;-84
2020/12/02 12:30:50;;;;;;;197.57;74.32;;;;;;;0.70;60.95;97187.67;1795697;78;21199;-86
2020/12/02 12:33:31;;;;;;;74.03;33.95;;;;;;;0.76;60.87;97186.53;1802279;78;21180;-84
2020/12/02 12:36:12;;;;;;;46.08;23.67;;;;;;;0.76;60.62;97183.94;1809483;78;21232;-83
2020/12/02 12:39:30;;;;;;;43.05;21.62;;;;;;;0.78;60.71;97181.67;1801702;78;21164;-83
2020/12/02 12:42:00;;;;;;;119.70;54.13;;;;;;;0.82;60.53;97187.53;1761850;80;21192;-84
2020/12/02 12:47:33;;;;;;;74.95;37.80;;;;;;;0.86;60.89;97178.70;1839952;77;27983;-84
2020/12/02 12:50:06;;;;;;;56.90;31.00;;;;;;;0.81;61.07;97176.78;1801953;78;21240;-84
2020/12/02 12:52:36;;;;;;;69.87;38.50;;;;;;;0.84;61.08;97178.41;1799704;78;21216;-85
2020/12/02 12:55:06;;;;;;;161.18;80.85;;;;;;;0.82;61.27;97178.45;1787595;80;21514;-85
2020/12/02 12:57:36;;;;;;;60.23;33.02;;;;;;;0.83;61.48;97181.46;1761522;80;21071;-81
2020/12/02 13:00:12;;;;;;;64.27;34.03;;;;;;;0.84;61.57;97179.70;1803028;79;21145;-84
2020/12/02 13:02:40;;;;;;;74.85;42.25;;;;;;;0.84;61.39;97179.24;1802583;79;21545;-83
2020/12/02 13:05:13;;;;;;;63.48;35.38;;;;;;;0.85;61.48;97174.44;1774673;79;21655;-84
2020/12/02 13:07:43;;;;;;;;;;;;;;;0.76;61.45;97181.34;1806510;79;21122;-85
2020/12/02 13:10:34;;;;;;;85.12;45.25;;;;;;;0.64;61.73;97176.76;1803810;79;20226;-85
2020/12/02 13:13:46;;;;;;;67.97;32.40;;;;;;;0.51;62.19;97184.28;1803485;79;21153;-83
2020/12/02 13:16:47;;;;;;;62.40;27.85;;;;;;;0.45;62.37;97188.00;1749959;79;21212;-82
2020/12/02 13:19:33;;;;;;;52.48;29.48;;;;;;;0.41;62.68;97196.82;1803371;79;21378;-83
2020/12/02 13:22:08;;;;;;;43.98;24.63;;;;;;;0.37;62.94;97197.06;1775739;79;21613;-82
2020/12/02 13:24:56;;;;;;;43.70;24.15;;;;;;;0.33;62.95;97194.22;1762900;80;21088;-85
2020/12/02 13:27:49;;;;;;;;;;;;;;;;;;;;;
2020/12/02 13:30:27;;;;;;;44.23;23.55;;;;;;;0.22;63.42;97194.25;1852454;77;28169;-84
2020/12/02 13:33:19;;;;;;;51.23;27.25;;;;;;;0.18;63.66;97194.48;1790297;78;21503;-85
2020/12/02 13:35:48;;;;;;;53.55;27.05;;;;;;;0.22;63.76;97197.30;1778985;80;21507;-84
2020/12/02 13:38:16;;;;;;;46.42;26.12;;;;;;;0.23;63.58;97196.39;1791146;78;21098;-82
2020/12/02 13:40:45;;;;;;;47.93;24.60;;;;;;;0.16;63.78;97196.29;1820168;78;21482;-84
2020/12/02 13:43:25;;;;;;;37.28;21.48;;;;;;;0.15;63.92;97195.45;1817349;78;21503;-83
2020/12/02 13:45:56;;;;;;;39.08;21.60;;;;;;;0.17;63.92;97200.09;1794498;78;21134;-84
2020/12/02 13:48:27;;;;;;;38.90;22.85;;;;;;;0.17;63.95;97197.96;1711062;81;21203;-83
2020/12/02 13:51:10;;;;;;;39.75;23.12;;;;;;;0.13;64.23;97196.45;1794252;78;21154;-83
2020/12/02 13:53:56;;;;;;;;;;;;;;;;;;;;;
2020/12/02 13:56:34;;;;;;;43.80;28.92;;;;;;;0.01;64.66;97197.01;1823832;77;28060;-82
2020/12/02 13:59:34;;;;;;;43.83;24.92;;;;;;;0.02;64.68;97196.09;1787518;78;21041;-84
2020/12/02 14:02:25;;;;;;;44.00;25.37;;;;;;;-0.04;64.79;97196.75;1786966;80;22330;-85
2020/12/02 14:05:19;;;;;;;45.50;26.12;;;;;;;-0.13;65.30;97202.33;1721407;82;21147;-85
2020/12/02 14:07:48;;;;;;;44.73;26.25;;;;;;;-0.13;65.49;97204.08;1778031;78;21204;-84
2020/12/02 14:10:20;;;;;;;49.15;26.27;;;;;;;-0.12;65.41;97210.92;1782907;78;21177;-86
2020/12/02 14:12:54;;;;;;;43.40;25.32;;;;;;;-0.10;65.36;97200.91;1790068;80;21592;-85
2020/12/02 14:15:28;;;;;;;51.68;27.52;;;;;;;-0.06;65.44;97199.88;1770372;78;21319;-85
2020/12/02 14:18:00;;;;;;;48.98;26.27;;;;;;;0.03;65.29;97204.23;1795596;80;21113;-84
2020/12/02 14:20:33;;;;;;;51.20;29.02;;;;;;;0.07;65.11;97198.86;1796854;78;21097;-85
2020/12/02 14:23:20;;;;;;;44.40;24.90;;;;;;;0.10;65.01;97200.00;1792714;80;21070;-85
2020/12/02 14:25:54;;;;;;;50.48;26.17;;;;;;;0.11;65.10;97197.78;1794635;80;21607;-83
2020/12/02 14:28:29;;;;;;;48.73;26.70;;;;;;;0.09;64.98;97199.61;1788284;80;21381;-85
2020/12/02 14:30:59;;;;;;;46.02;24.95;;;;;;;0.01;65.16;97197.01;1786510;80;21197;-83
2020/12/02 14:33:30;;;;;;;44.70;24.02;;;;;;;-0.07;65.27;97202.05;1787735;80;21678;-84
2020/12/02 14:36:00;;;;;;;44.60;24.35;;;;;;;-0.18;65.35;97204.73;1787907;80;21208;-83
2020/12/02 14:38:37;;;;;;;47.17;26.93;;;;;;;-0.25;65.66;97202.03;1788309;80;21079;-83
2020/12/02 14:41:09;;;;;;;48.38;29.15;;;;;;;-0.36;65.77;97201.20;1788381;80;21359;-85
2020/12/02 14:43:39;;;;;;;42.03;25.80;;;;;;;-0.42;66.24;97197.14;1788128;80;28587;-84
2020/12/02 14:46:10;;;;;;;45.70;26.57;;;;;;;-0.50;66.44;97206.15;1787789;80;21210;-85
2020/12/02 14:48:41;;;;;;;44.05;24.25;;;;;;;-0.61;66.70;97201.44;1787463;80;21150;-86
2020/12/02 14:51:10;;;;;;;47.78;25.65;;;;;;;-0.66;67.26;97202.08;1787341;80;21102;-83
2020/12/02 14:53:41;;;;;;;42.27;24.47;;;;;;;-0.72;67.41;97197.16;1787794;80;21271;-84
2020/12/02 14:56:38;;;;;;;45.40;25.72;;;;;;;-0.77;67.63;97194.80;1783820;80;21091;-85
2020/12/02 14:59:29;;;;;;;44.75;24.85;;;;;;;-0.78;67.68;97206.02;1787713;80;21074;-83
2020/12/02 15:01:58;;;;;;;48.35;25.68;;;;;;;-0.80;67.63;97211.72;1787924;80;21221;-82
2020/12/02 15:04:28;;;;;;;43.55;26.30;;;;;;;-0.78;67.70;97208.61;1787291;80;21682;-84
2020/12/02 15:07:05;;;;;;;46.28;25.62;;;;;;;-0.79;67.88;97214.69;1718285;80;21375;-83
2020/12/02 15:09:50;;;;;;;43.10;23.55;;;;;;;-0.79;67.88;97216.44;1718891;83;21603;-85
2020/12/02 15:12:18;;;;;;;48.20;27.27;;;;;;;-0.82;67.95;97212.25;1786508;80;21208;-84
2020/12/02 15:14:48;;;;;;;54.98;27.25;;;;;;;-0.82;68.00;97218.71;1718961;83;21616;-86
2020/12/02 15:17:42;;;;;;;49.40;27.90;;;;;;;-0.77;68.07;97213.33;1787460;80;21053;-84
2020/12/02 15:20:13;;;;;;;51.98;27.42;;;;;;;-0.69;68.02;97209.52;1720290;83;21457;-84
2020/12/02 15:22:42;;;;;;;53.08;28.67;;;;;;;-0.60;67.74;97202.66;1787372;80;21154;-86
2020/12/02 15:25:12;;;;;;;48.40;26.27;;;;;;;-0.55;67.47;97207.63;1719919;83;21673;-86
2020/12/02 15:27:47;;;;;;;50.95;28.75;;;;;;;-0.57;67.39;97205.58;1786674;80;21664;-86
2020/12/02 15:30:36;;;;;;;55.55;28.95;;;;;;;-0.53;67.24;97203.25;1787219;80;21065;-85
2020/12/02 15:33:08;;;;;;;56.58;27.00;;;;;;;-0.46;67.22;97205.13;1723564;81;22313;-84
2020/12/02 15:35:38;;;;;;;52.20;28.77;;;;;;;-0.37;67.03;97204.70;1756318;81;21078;-84
2020/12/02 15:38:14;;;;;;;60.40;35.13;;;;;;;-0.28;66.91;97209.03;1783968;80;21065;-84
2020/12/02 15:41:02;;;;;;;68.60;39.42;;;;;;;-0.17;66.68;97208.56;1784226;80;21629;-83
2020/12/02 15:44:00;;;;;;;69.45;40.15;;;;;;;-0.10;66.46;97197.02;1784565;80;21101;-84
2020/12/02 15:47:02;;;;;;;63.38;38.92;;;;;;;-0.07;66.47;97188.27;1784511;80;21199;-85
2020/12/02 15:50:01;;;;;;;66.25;36.05;;;;;;;-0.02;66.19;97188.91;1784747;80;21093;-83
2020/12/02 15:53:00;;;;;;;60.85;30.17;;;;;;;0.03;66.25;97194.72;1784428;80;21097;-84
2020/12/02 15:55:56;;;;;;;59.53;33.35;;;;;;;0.04;65.92;97196.39;1784711;80;21169;-86
2020/12/02 15:58:52;;;;;;;59.00;32.05;;;;;;;0.02;65.91;97193.50;1786883;80;21057;-84
2020/12/02 16:01:28;;;;;;;62.73;32.67;;;;;;;0.01;66.00;97190.08;1781144;80;21379;-84
2020/12/02 16:04:24;;;;;;;55.25;31.15;;;;;;;-0.01;66.26;97197.89;1787275;80;21061;-86
2020/12/02 16:07:20;;;;;;;60.52;34.83;;;;;;;-0.02;66.29;97195.38;1762959;80;21058;-85
2020/12/02 16:09:53;;;;;;;65.92;37.28;;;;;;;-0.04;66.73;97204.52;1787629;80;21235;-84
2020/12/02 16:12:22;;;;;;;65.87;37.15;;;;;;;-0.01;66.81;97190.58;1790315;79;21070;-84
2020/12/02 16:14:51;;;;;;;62.70;34.95;;;;;;;-0.01;66.80;97193.17;1787792;79;21371;-86
2020/12/02 16:17:20;;;;;;;59.05;34.70;;;;;;;0.09;66.83;97193.60;1786628;80;21196;-83
2020/12/02 16:19:49;;;;;;;60.43;30.37;;;;;;;0.14;66.93;97187.77;1786787;80;21176;-83
2020/12/02 16:22:39;;;;;;;58.02;29.82;;;;;;;0.14;66.90;97186.47;1761448;80;21067;-85
2020/12/02 16:25:16;;;;;;;56.18;30.92;;;;;;;0.10;66.64;97184.92;1760742;80;21164;-83
2020/12/02 16:27:46;;;;;;;58.63;32.85;;;;;;;0.06;66.79;97184.23;1786861;80;21199;-83
2020/12/02 16:30:16;;;;;;;57.53;32.17;;;;;;;0.07;66.88;97179.44;1786889;80;21101;-84
2020/12/02 16:32:51;;;;;;;59.80;30.75;;;;;;;0.10;66.86;97187.51;1786694;80;21065;-83
2020/12/02 16:35:21;;;;;;;59.93;32.25;;;;;;;0.17;66.76;97179.38;1786715;80;21165;-84
2020/12/02 16:37:55;;;;;;;51.10;28.92;;;;;;;0.19;66.62;97176.28;1787377;80;21125;-83
2020/12/02 16:40:24;;;;;;;61.77;34.30;;;;;;;0.22;66.49;97170.11;1787235;80;21374;-83
2020/12/02 16:43:37;;;;;;;53.13;31.30;;;;;;;0.22;66.35;97169.65;1787115;80;21101;-82
2020/12/02 16:46:38;;;;;;;62.08;32.25;;;;;;;0.21;66.33;97164.55;1789558;80;21050;-83
2020/12/02 16:49:27;;;;;;;52.78;28.77;;;;;;;0.16;66.44;97162.16;1789740;80;21030;-83
2020/12/02 16:52:07;;;;;;;48.68;27.13;;;;;;;0.09;66.53;97162.53;1729212;80;21137;-83
2020/12/02 16:55:19;;;;;;;48.95;27.32;;;;;;;-0.03;66.64;97160.88;1789950;80;21326;-82
2020/12/02 16:57:50;;;;;;;49.30;28.73;;;;;;;-0.08;66.99;97168.47;1787067;80;21096;-83
2020/12/02 17:00:30;;;;;;;46.95;28.30;;;;;;;0.00;67.14;97172.87;1761777;80;21940;-84
2020/12/02 17:03:13;;;;;;;47.88;27.30;;;;;;;0.10;66.98;97167.63;1787538;80;21035;-82
2020/12/02 17:05:43;;;;;;;48.00;26.93;;;;;;;0.18;66.88;97171.18;1787988;80;21621;-84
2020/12/02 17:08:15;;;;;;;50.65;27.67;;;;;;;0.26;66.72;97170.36;1787191;80;21491;-84
2020/12/02 17:10:44;;;;;;;47.78;28.12;;;;;;;0.33;66.60;97167.02;1744595;80;21084;-82
2020/12/02 17:13:36;;;;;;;45.63;27.40;;;;;;;0.42;66.44;97166.14;1754263;81;21116;-81
2020/12/02 17:16:32;;;;;;;49.60;27.93;;;;;;;0.52;66.01;97165.23;1755432;81;21061;-82
2020/12/02 17:19:43;;;;;;;57.88;31.95;;;;;;;0.49;66.07;97158.91;1755682;81;21140;-82
2020/12/02 17:22:38;;;;;;;49.70;28.83;;;;;;;0.54;65.96;97158.24;1756016;81;21374;-82
2020/12/02 17:26:05;;;;;;;53.58;30.37;;;;;;;0.56;65.81;97172.41;1756888;81;21085;-83
2020/12/02 17:29:05;;;;;;;49.05;28.17;;;;;;;0.56;65.68;97171.12;1755454;81;21042;-82
2020/12/02 17:31:54;;;;;;;50.50;28.15;;;;;;;0.56;65.62;97173.25;1755231;81;21077;-84
2020/12/02 17:34:52;;;;;;;47.88;27.70;;;;;;;0.58;65.64;97174.00;1748947;81;21069;-81
2020/12/02 17:37:42;;;;;;;46.45;27.32;;;;;;;0.56;65.50;97178.89;1754576;81;21203;-81
2020/12/02 17:40:48;;;;;;;55.23;29.85;;;;;;;0.49;65.71;97174.46;1756076;81;21236;-79
2020/12/02 17:43:35;;;;;;;51.68;28.35;;;;;;;0.46;65.96;97168.95;1756599;81;21093;-82
2020/12/02 17:46:13;;;;;;;50.40;28.57;;;;;;;0.43;65.92;97166.98;1756385;81;21125;-79
2020/12/02 17:49:22;;;;;;;45.52;26.35;;;;;;;0.42;65.98;97166.14;1756922;81;21110;-82
2020/12/02 17:52:33;;;;;;;50.08;29.63;;;;;;;0.48;65.93;97165.85;1756095;81;22148;-81
2020/12/02 17:55:02;;;;;;;49.60;29.52;;;;;;;0.44;66.04;97159.59;1755472;81;21196;-79
2020/12/02 17:57:31;;;;;;;52.05;30.08;;;;;;;0.45;66.01;97158.67;1737490;82;21606;-83
2020/12/02 18:00:00;;;;;;;56.88;30.72;;;;;;;0.44;66.10;97158.29;1821844;78;21199;-83
2020/12/02 18:03:08;;;;;;;54.93;31.15;;;;;;;0.48;65.98;97155.95;1823029;77;21105;-84
2020/12/02 18:06:07;;;;;;;58.13;33.92;;;;;;;0.57;65.78;97152.06;1852294;77;28028;-83
2020/12/02 18:08:44;;;;;;;52.20;31.60;;;;;;;0.50;65.80;97149.77;1820395;78;21246;-83
2020/12/02 18:11:45;;;;;;;57.88;35.15;;;;;;;0.53;65.76;97145.75;1820041;78;22263;-83
2020/12/02 18:15:06;;;;;;;53.35;33.13;;;;;;;0.54;65.51;97143.99;1749989;82;21530;-83
2020/12/02 18:17:52;;;;;;;54.67;32.13;;;;;;;0.45;65.56;97141.83;1819946;78;21068;-83
2020/12/02 18:21:04;;;;;;;59.05;32.90;;;;;;;0.44;65.74;97134.52;1819795;78;21153;-82
2020/12/02 18:23:44;;;;;;;57.55;31.07;;;;;;;0.49;65.54;97135.59;1749959;81;21081;-82
2020/12/02 18:26:30;;;;;;;57.90;32.90;;;;;;;0.50;65.48;97132.09;1820004;78;21200;-82
2020/12/02 18:29:34;;;;;;;60.50;32.50;;;;;;;0.53;65.51;97134.52;1819908;78;21160;-84
2020/12/02 18:32:40;;;;;;;54.50;31.00;;;;;;;0.61;65.34;97131.58;1750925;82;21065;-82
2020/12/02 18:35:31;;;;;;;57.08;30.92;;;;;;;0.64;65.02;97138.72;1820348;78;21156;-81
2020/12/02 18:38:17;;;;;;;55.98;31.70;;;;;;;0.66;64.90;97136.08;1784468;78;21149;-82
2020/12/02 18:41:23;;;;;;;58.38;32.58;;;;;;;0.61;65.03;97139.34;1750780;82;22366;-82
2020/12/02 18:44:00;;;;;;;64.35;37.65;;;;;;;0.61;65.01;97139.34;1820768;78;21073;-82
2020/12/02 18:46:37;;;;;;;62.80;36.53;;;;;;;0.65;65.05;97138.27;1750787;81;21180;-81
2020/12/02 18:49:34;;;;;;;59.60;35.20;;;;;;;0.70;64.81;97139.72;1817162;78;21141;-81
2020/12/02 18:52:04;;;;;;;54.75;31.45;;;;;;;0.74;64.70;97142.55;1806488;78;21474;-82
2020/12/02 18:54:33;;;;;;;54.27;32.88;;;;;;;0.76;64.51;97136.83;1819951;78;22103;-82
2020/12/02 18:57:37;;;;;;;59.67;33.10;;;;;;;0.78;64.50;97137.61;1820010;78;21057;-82
2020/12/02 19:00:16;;;;;;;56.88;33.35;;;;;;;0.82;64.28;97139.57;1820148;78;21628;-83
2020/12/02 19:02:49;;;;;;;57.20;33.38;;;;;;;0.78;64.25;97139.36;1745263;82;21139;-84
2020/12/02 19:05:26;;;;;;;;;;;;;;;0.71;64.18;97144.02;1822365;78;21093;-81
2020/12/02 19:08:11;;;;;;;64.58;35.25;;;;;;;0.64;64.42;97143.06;1819821;78;21331;-82
2020/12/02 19:10:42;;;;;;;59.70;34.90;;;;;;;0.63;64.62;97139.64;1722927;82;21074;-83
2020/12/02 19:13:38;;;;;;;62.70;39.03;;;;;;;0.66;64.54;97139.97;1819784;78;21128;-84
2020/12/02 19:16:27;;;;;;;63.45;36.28;;;;;;;0.60;64.48;97140.27;1807634;78;21188;-83
2020/12/02 19:19:10;;;;;;;57.43;33.88;;;;;;;0.55;64.77;97142.23;1749339;82;21197;-82
2020/12/02 19:21:47;;;;;;;60.83;34.70;;;;;;;0.56;64.75;97142.61;1819344;78;21363;-84
2020/12/02 19:24:34;;;;;;;61.20;34.67;;;;;;;0.58;64.80;97137.73;1749027;81;21180;-84